Time;durP1;ratioP1;P1;durP2;ratioP2;P2;SDS_P1;SDS_P2;PMS_P1;PMS_P2;Temp;Humidity;BMP_temperature;BMP_pressure;BME280_temperature;BME280_humidity;BME280_pressure;Samples;Min_cycle;Max_cycle;Signal;HPM_P1;HPM_P2
2023/01/09 00:01:32;;;;;;;0.60;0.60;;;2.60;99.90;;;;;;5088010;28;20200;-85
2023/01/09 00:03:58;;;;;;;0.60;0.60;;;2.70;99.90;;;;;;5077968;28;20201;-86
2023/01/09 00:06:24;;;;;;;0.60;0.60;;;2.80;99.90;;;;;;5096244;28;20204;-87
2023/01/09 00:08:50;;;;;;;0.73;0.73;;;3.00;99.90;;;;;;5078116;28;20283;-86
2023/01/09 00:11:16;;;;;;;0.80;0.80;;;3.00;99.90;;;;;;5095959;28;20192;-86
2023/01/09 00:13:41;;;;;;;0.70;0.70;;;3.10;99.90;;;;;;5095894;28;20215;-87
2023/01/09 00:16:08;;;;;;;0.50;0.50;;;3.20;99.90;;;;;;5096210;28;20279;-87
2023/01/09 00:18:35;;;;;;;0.55;0.55;;;3.20;99.90;;;;;;5095573;28;20188;-86
2023/01/09 00:21:06;;;;;;;0.60;0.60;;;3.10;99.90;;;;;;5077750;28;20188;-87
2023/01/09 00:23:32;;;;;;;0.85;0.85;;;3.10;99.90;;;;;;5077500;28;20258;-86
2023/01/09 00:26:05;;;;;;;0.60;0.60;;;3.00;99.90;;;;;;5076325;28;20192;-87
2023/01/09 00:28:31;;;;;;;0.60;0.60;;;3.00;99.90;;;;;;5077183;28;20208;-86
2023/01/09 00:30:58;;;;;;;0.60;0.60;;;3.00;99.90;;;;;;5094742;28;20211;-86
2023/01/09 00:33:29;;;;;;;0.65;0.65;;;3.00;99.90;;;;;;5077147;28;20196;-86
2023/01/09 00:35:57;;;;;;;0.63;0.63;;;3.00;99.90;;;;;;5095478;28;20192;-86
2023/01/09 00:38:23;;;;;;;0.57;0.57;;;3.00;99.90;;;;;;5073178;28;20726;-86
2023/01/09 00:40:48;;;;;;;0.60;0.60;;;2.90;99.90;;;;;;5075084;28;20193;-86
2023/01/09 00:43:15;;;;;;;0.65;0.65;;;2.90;99.90;;;;;;5057179;28;20236;-85
2023/01/09 00:45:41;;;;;;;0.70;0.70;;;2.80;99.90;;;;;;5073953;28;20212;-86
2023/01/09 00:48:10;;;;;;;0.80;0.80;;;2.80;99.90;;;;;;5057099;28;20217;-86
2023/01/09 00:50:37;;;;;;;1.00;0.90;;;2.80;99.90;;;;;;5074679;28;20232;-85
2023/01/09 00:53:11;;;;;;;0.57;0.57;;;2.80;99.90;;;;;;5075148;28;20623;-86
2023/01/09 00:55:37;;;;;;;0.52;0.52;;;2.80;99.90;;;;;;5094909;28;20189;-86
2023/01/09 00:58:03;;;;;;;0.60;0.60;;;2.90;99.90;;;;;;5095334;28;20215;-85
2023/01/09 01:00:29;;;;;;;0.60;0.60;;;2.90;99.90;;;;;;5076985;28;20230;-86
2023/01/09 01:02:55;;;;;;;0.68;0.68;;;3.00;99.90;;;;;;5076777;28;20203;-87
2023/01/09 01:08:13;;;;;;;0.70;0.70;;;2.90;99.90;;;;;;5094987;28;20235;-86
2023/01/09 01:10:39;;;;;;;1.35;1.25;;;2.80;99.90;;;;;;5094890;28;21220;-86
2023/01/09 01:13:05;;;;;;;0.60;0.60;;;2.80;99.90;;;;;;5089789;28;20212;-86
2023/01/09 01:15:30;;;;;;;0.70;0.70;;;2.80;99.90;;;;;;5093699;28;20825;-86
2023/01/09 01:17:56;;;;;;;0.65;0.65;;;2.80;99.90;;;;;;5076812;28;20200;-87
2023/01/09 01:20:22;;;;;;;0.60;0.60;;;2.90;99.90;;;;;;5093724;28;20200;-86
2023/01/09 01:22:48;;;;;;;0.60;0.60;;;2.90;99.90;;;;;;5076319;28;20228;-84
2023/01/09 01:25:18;;;;;;;0.73;0.73;;;2.90;99.90;;;;;;5076728;28;20203;-85
2023/01/09 01:27:44;;;;;;;0.60;0.60;;;2.90;99.90;;;;;;5076575;28;20323;-86
2023/01/09 01:30:12;;;;;;;2.15;0.95;;;2.90;99.90;;;;;;5076575;28;20200;-86
2023/01/09 01:32:39;;;;;;;0.82;0.77;;;2.90;99.90;;;;;;5076582;28;20192;-85
2023/01/09 01:35:06;;;;;;;1.25;1.00;;;3.00;99.90;;;;;;5094305;28;20200;-86
2023/01/09 01:37:34;;;;;;;0.60;0.60;;;3.10;99.90;;;;;;5075670;28;20200;-86
2023/01/09 01:39:59;;;;;;;0.70;0.70;;;3.20;99.90;;;;;;5076541;28;20307;-87
2023/01/09 01:42:26;;;;;;;0.57;0.57;;;3.20;99.90;;;;;;5076237;28;20223;-86
2023/01/09 01:45:15;;;;;;;0.47;0.47;;;3.20;99.90;;;;;;5076103;28;20231;-85
2023/01/09 01:47:52;;;;;;;0.70;0.70;;;3.10;99.90;;;;;;5094087;28;20720;-86
2023/01/09 01:50:21;;;;;;;0.60;0.60;;;3.10;99.90;;;;;;5081182;28;20565;-85
2023/01/09 01:53:14;;;;;;;0.45;0.45;;;3.10;99.90;;;;;;5092637;28;20192;-86
2023/01/09 01:56:09;;;;;;;0.65;0.65;;;3.10;99.90;;;;;;5065684;28;20232;-85
2023/01/09 01:58:42;;;;;;;0.70;0.70;;;3.00;99.90;;;;;;5073834;28;20225;-84
2023/01/09 02:01:08;;;;;;;0.70;0.70;;;3.00;99.90;;;;;;5056167;28;20193;-79
2023/01/09 02:03:35;;;;;;;0.60;0.60;;;3.00;99.90;;;;;;5103161;23;20241;-71
2023/01/09 02:06:03;;;;;;;1.08;1.08;;;3.00;99.90;;;;;;5134069;27;20199;-70
2023/01/09 02:08:30;;;;;;;0.60;0.60;;;3.10;99.90;;;;;;5115062;28;20756;-70
2023/01/09 02:10:56;;;;;;;0.60;0.60;;;3.10;99.90;;;;;;5129141;28;20216;-69
2023/01/09 02:13:23;;;;;;;0.65;0.65;;;3.20;99.90;;;;;;5113441;28;20230;-69
2023/01/09 02:15:51;;;;;;;0.70;0.70;;;3.20;99.90;;;;;;5113921;28;20200;-70
2023/01/09 02:18:46;;;;;;;0.50;0.50;;;3.20;99.90;;;;;;5112992;28;20191;-70
2023/01/09 02:21:31;;;;;;;0.73;0.73;;;3.30;99.90;;;;;;5095258;28;20204;-71
2023/01/09 02:24:42;;;;;;;0.80;0.80;;;3.30;99.90;;;;;;5095225;28;20195;-70
2023/01/09 02:27:33;;;;;;;0.60;0.60;;;3.20;99.90;;;;;;5087631;28;20322;-70
2023/01/09 02:30:32;;;;;;;0.70;0.70;;;3.20;99.90;;;;;;5106934;28;20196;-70
2023/01/09 02:33:22;;;;;;;1.48;1.38;;;3.10;99.90;;;;;;5075008;28;20204;-70
2023/01/09 02:36:09;;;;;;;0.68;0.68;;;3.10;99.90;;;;;;5093122;28;20226;-70
2023/01/09 02:38:58;;;;;;;0.80;0.80;;;3.10;99.90;;;;;;5104246;28;20195;-70
2023/01/09 02:41:36;;;;;;;0.60;0.60;;;3.00;99.90;;;;;;5113193;28;20237;-70
2023/01/09 02:44:15;;;;;;;0.70;0.70;;;3.10;99.90;;;;;;5095133;28;20555;-70
2023/01/09 02:46:41;;;;;;;0.50;0.50;;;3.10;99.90;;;;;;5094663;28;20215;-70
2023/01/09 02:49:07;;;;;;;0.60;0.60;;;3.10;99.90;;;;;;5097627;28;20233;-70
2023/01/09 02:51:52;;;;;;;0.80;0.80;;;3.10;99.90;;;;;;5098980;28;20211;-72
2023/01/09 02:54:20;;;;;;;0.75;0.75;;;3.20;99.90;;;;;;5099093;28;20187;-70
2023/01/09 02:57:17;;;;;;;0.65;0.65;;;3.10;99.90;;;;;;5117331;28;20191;-70
2023/01/09 03:00:01;;;;;;;0.47;0.47;;;3.10;99.90;;;;;;5083096;28;20211;-70
2023/01/09 03:02:52;;;;;;;0.60;0.60;;;3.10;99.90;;;;;;5115679;28;20235;-70
2023/01/09 03:05:39;;;;;;;0.65;0.65;;;3.10;99.90;;;;;;5089304;28;20206;-70
2023/01/09 03:08:36;;;;;;;0.63;0.63;;;3.10;99.90;;;;;;5116838;28;20231;-70
2023/01/09 03:11:06;;;;;;;0.47;0.47;;;3.10;99.90;;;;;;5116952;28;20188;-70
2023/01/09 03:13:45;;;;;;;0.60;0.60;;;3.10;99.90;;;;;;5094480;28;20197;-70
2023/01/09 03:16:15;;;;;;;0.50;0.50;;;3.10;99.90;;;;;;5078013;28;20662;-70
2023/01/09 03:18:43;;;;;;;0.55;0.55;;;3.00;99.90;;;;;;5095546;28;20188;-70
2023/01/09 03:21:10;;;;;;;0.60;0.60;;;2.90;99.90;;;;;;5096520;28;20192;-70
2023/01/09 03:24:00;;;;;;;0.60;0.60;;;2.90;99.90;;;;;;5096310;28;20243;-72
2023/01/09 03:26:28;;;;;;;0.57;0.57;;;2.80;99.90;;;;;;5095325;28;20279;-70
2023/01/09 03:28:54;;;;;;;0.65;0.65;;;2.80;99.90;;;;;;5096340;28;20678;-70
2023/01/09 03:31:20;;;;;;;0.50;0.50;;;2.70;99.90;;;;;;5077837;28;20783;-71
2023/01/09 03:33:46;;;;;;;0.50;0.50;;;2.70;99.90;;;;;;5096323;28;20198;-70
2023/01/09 03:36:13;;;;;;;0.60;0.60;;;2.70;99.90;;;;;;5078059;28;20231;-70
2023/01/09 03:38:39;;;;;;;0.60;0.60;;;2.60;99.90;;;;;;5107872;28;21157;-70
2023/01/09 03:41:05;;;;;;;0.70;0.70;;;2.60;99.90;;;;;;5116436;28;20624;-70
2023/01/09 03:43:31;;;;;;;0.70;0.70;;;2.60;99.90;;;;;;5115876;28;20227;-70
2023/01/09 03:45:57;;;;;;;0.60;0.60;;;2.60;99.90;;;;;;5116121;28;20198;-70
2023/01/09 03:48:23;;;;;;;0.50;0.50;;;2.60;99.90;;;;;;5115990;28;20212;-71
2023/01/09 03:50:50;;;;;;;0.50;0.50;;;2.60;99.90;;;;;;5116228;28;20191;-70
2023/01/09 03:53:16;;;;;;;0.60;0.60;;;2.60;99.90;;;;;;5097929;28;20199;-70
2023/01/09 03:55:50;;;;;;;0.70;0.70;;;2.50;99.90;;;;;;5116163;28;20195;-70
2023/01/09 03:58:16;;;;;;;0.60;0.60;;;2.60;99.90;;;;;;5116043;28;20229;-69
2023/01/09 04:00:44;;;;;;;0.60;0.60;;;2.60;99.90;;;;;;5110653;28;20214;-70
2023/01/09 04:03:11;;;;;;;0.55;0.55;;;2.70;99.90;;;;;;5111521;28;20569;-70
2023/01/09 04:05:37;;;;;;;1.13;1.02;;;2.70;99.90;;;;;;5115786;28;20666;-70
2023/01/09 04:08:04;;;;;;;0.65;0.65;;;2.80;99.90;;;;;;5096841;28;20294;-70
2023/01/09 04:10:30;;;;;;;0.60;0.60;;;2.70;99.90;;;;;;5115691;28;20207;-70
2023/01/09 04:12:56;;;;;;;0.80;0.80;;;2.80;99.90;;;;;;5115848;28;20197;-70
2023/01/09 04:15:22;;;;;;;0.50;0.50;;;2.70;99.90;;;;;;5115533;28;20191;-70
2023/01/09 04:17:48;;;;;;;0.60;0.60;;;2.70;99.90;;;;;;5115786;28;20188;-70
2023/01/09 04:20:14;;;;;;;0.60;0.60;;;2.70;99.90;;;;;;5115789;28;20293;-70
2023/01/09 04:22:40;;;;;;;0.60;0.60;;;2.70;99.90;;;;;;5115858;28;20231;-71
2023/01/09 04:25:06;;;;;;;0.65;0.65;;;2.70;99.90;;;;;;5115351;28;20207;-70
2023/01/09 04:27:31;;;;;;;0.50;0.50;;;2.70;99.90;;;;;;5097068;28;20264;-70
2023/01/09 04:29:57;;;;;;;0.70;0.70;;;2.70;99.90;;;;;;5097137;28;20230;-70
2023/01/09 04:32:23;;;;;;;0.63;0.63;;;2.80;99.90;;;;;;5097007;28;20199;-70
2023/01/09 04:34:49;;;;;;;4.85;1.40;;;2.80;99.90;;;;;;5115453;28;20188;-70
2023/01/09 04:37:14;;;;;;;0.60;0.60;;;2.80;99.90;;;;;;5096839;28;20619;-71
2023/01/09 04:39:43;;;;;;;0.60;0.60;;;2.80;99.90;;;;;;5096563;28;20286;-70
2023/01/09 04:42:09;;;;;;;0.60;0.60;;;2.80;99.90;;;;;;5115102;28;20274;-71
2023/01/09 04:44:35;;;;;;;0.50;0.50;;;2.90;99.90;;;;;;5096568;28;20196;-70
2023/01/09 04:47:01;;;;;;;0.60;0.60;;;2.90;99.90;;;;;;5096209;28;20208;-70
2023/01/09 04:49:27;;;;;;;0.43;0.43;;;2.90;99.90;;;;;;5114907;28;20553;-71
2023/01/09 04:51:53;;;;;;;0.60;0.60;;;2.90;99.90;;;;;;5114960;28;20187;-71
2023/01/09 04:54:20;;;;;;;0.50;0.50;;;3.00;99.90;;;;;;5114752;28;20234;-70
2023/01/09 04:56:46;;;;;;;0.50;0.50;;;3.00;99.90;;;;;;5096676;28;20622;-70
2023/01/09 04:59:12;;;;;;;0.50;0.50;;;3.00;99.90;;;;;;5114713;28;20196;-70
2023/01/09 05:01:38;;;;;;;0.60;0.60;;;3.00;99.90;;;;;;5114447;28;20192;-70
2023/01/09 05:04:04;;;;;;;0.60;0.60;;;2.90;99.90;;;;;;5110339;28;20315;-70
2023/01/09 05:06:30;;;;;;;0.63;0.63;;;3.00;99.90;;;;;;5094020;28;20267;-70
2023/01/09 05:08:56;;;;;;;0.45;0.45;;;3.00;99.90;;;;;;5094321;28;20271;-71
2023/01/09 05:11:24;;;;;;;0.90;0.90;;;3.00;99.90;;;;;;5093455;28;20192;-69
2023/01/09 05:13:51;;;;;;;0.50;0.50;;;3.00;99.90;;;;;;5094389;28;20184;-70
2023/01/09 05:16:16;;;;;;;0.50;0.50;;;3.00;99.90;;;;;;5094259;28;20670;-70
2023/01/09 05:18:42;;;;;;;0.50;0.50;;;3.00;99.90;;;;;;5093982;28;20199;-70
2023/01/09 05:21:08;;;;;;;0.40;0.40;;;3.00;99.90;;;;;;5094168;28;20207;-70
2023/01/09 05:23:34;;;;;;;0.70;0.70;;;3.00;99.90;;;;;;5093918;28;20397;-70
2023/01/09 05:25:59;;;;;;;0.50;0.50;;;3.00;99.90;;;;;;5093431;28;20192;-70
2023/01/09 05:28:25;;;;;;;0.50;0.50;;;3.00;99.90;;;;;;5093729;28;20212;-70
2023/01/09 05:30:51;;;;;;;0.50;0.50;;;3.00;99.90;;;;;;5093997;28;20218;-70
2023/01/09 05:33:17;;;;;;;0.60;0.60;;;3.00;99.90;;;;;;5093849;28;20271;-69
2023/01/09 05:35:42;;;;;;;0.52;0.52;;;3.00;99.90;;;;;;5093626;28;20188;-69
2023/01/09 05:38:08;;;;;;;0.50;0.50;;;3.00;99.90;;;;;;5088191;28;20679;-70
2023/01/09 05:40:34;;;;;;;0.40;0.40;;;3.00;99.90;;;;;;5093512;28;20192;-70
2023/01/09 05:43:00;;;;;;;0.50;0.50;;;3.00;99.90;;;;;;5093618;28;20222;-70
2023/01/09 05:45:26;;;;;;;0.43;0.43;;;3.00;99.90;;;;;;5075257;28;20199;-70
2023/01/09 05:47:51;;;;;;;0.65;0.65;;;2.90;99.90;;;;;;5093602;28;20666;-71
2023/01/09 05:50:17;;;;;;;0.80;0.80;;;2.90;99.90;;;;;;5075365;28;20192;-69
2023/01/09 05:52:43;;;;;;;0.50;0.50;;;3.00;99.90;;;;;;5094065;28;20634;-69
2023/01/09 05:55:11;;;;;;;0.50;0.50;;;2.90;99.90;;;;;;5093349;28;20222;-69
2023/01/09 05:57:37;;;;;;;0.60;0.60;;;2.90;99.90;;;;;;5093904;28;20199;-70
2023/01/09 06:00:03;;;;;;;0.50;0.50;;;2.90;99.90;;;;;;5111811;28;20187;-71
2023/01/09 06:02:29;;;;;;;0.70;0.70;;;2.90;99.90;;;;;;5097123;28;20582;-70
2023/01/09 06:04:55;;;;;;;0.47;0.47;;;2.90;99.90;;;;;;5113334;28;20199;-70
2023/01/09 06:07:21;;;;;;;0.68;0.68;;;2.90;99.90;;;;;;5113342;28;20200;-71
2023/01/09 06:09:46;;;;;;;1.50;0.90;;;2.90;99.90;;;;;;5095509;28;20202;-69
2023/01/09 06:12:12;;;;;;;0.60;0.60;;;2.90;99.90;;;;;;5113522;28;20188;-70
2023/01/09 06:14:38;;;;;;;1.10;1.02;;;2.80;99.90;;;;;;5110260;28;20724;-70
2023/01/09 06:17:03;;;;;;;0.60;0.60;;;2.90;99.90;;;;;;5093184;28;20275;-69
2023/01/09 06:19:29;;;;;;;0.60;0.60;;;2.80;99.90;;;;;;5093068;28;20302;-69
2023/01/09 06:21:55;;;;;;;0.55;0.55;;;2.80;99.90;;;;;;5092862;28;20188;-69
2023/01/09 06:24:20;;;;;;;0.60;0.60;;;2.80;99.90;;;;;;5096010;28;20192;-70
2023/01/09 06:26:46;;;;;;;0.60;0.60;;;2.80;99.90;;;;;;5097522;28;20203;-70
2023/01/09 06:29:12;;;;;;;0.60;0.60;;;2.90;99.90;;;;;;5097606;28;20192;-70
2023/01/09 06:31:38;;;;;;;0.70;0.70;;;2.90;99.90;;;;;;5106167;28;20766;-70
2023/01/09 06:34:03;;;;;;;0.60;0.60;;;2.90;99.90;;;;;;5117599;28;20191;-69
2023/01/09 06:36:29;;;;;;;0.82;0.82;;;2.90;99.90;;;;;;5117023;28;20661;-69
2023/01/09 06:38:55;;;;;;;0.55;0.55;;;2.80;99.90;;;;;;5102857;28;20223;-69
2023/01/09 06:41:21;;;;;;;0.50;0.50;;;2.80;99.90;;;;;;5096356;28;20184;-70
2023/01/09 06:43:46;;;;;;;0.57;0.57;;;2.80;99.90;;;;;;5096786;28;20191;-69
2023/01/09 06:46:12;;;;;;;0.43;0.43;;;2.80;99.90;;;;;;5097216;28;20263;-69
2023/01/09 06:48:38;;;;;;;0.65;0.65;;;2.90;99.90;;;;;;5096935;28;20219;-69
2023/01/09 06:51:04;;;;;;;0.50;0.50;;;2.90;99.90;;;;;;5078831;28;20204;-68
2023/01/09 06:53:29;;;;;;;0.60;0.60;;;2.80;99.90;;;;;;5112387;28;20198;-70
2023/01/09 06:55:55;;;;;;;0.65;0.65;;;2.80;99.90;;;;;;5098854;28;20563;-69
2023/01/09 06:58:21;;;;;;;0.70;0.70;;;2.80;99.90;;;;;;5116587;28;20209;-70
2023/01/09 07:00:48;;;;;;;0.50;0.50;;;2.90;99.90;;;;;;5117048;28;20195;-69
2023/01/09 07:03:18;;;;;;;0.70;0.70;;;2.90;99.90;;;;;;5116454;28;20762;-72
2023/01/09 07:05:45;;;;;;;0.57;0.57;;;2.90;99.90;;;;;;5116897;28;20196;-69
2023/01/09 07:08:11;;;;;;;1.45;1.35;;;2.90;99.90;;;;;;5098751;28;20708;-69
2023/01/09 07:10:36;;;;;;;1.05;1.05;;;2.90;99.90;;;;;;5116938;28;20191;-70
2023/01/09 07:13:03;;;;;;;0.70;0.70;;;2.90;99.90;;;;;;5116987;28;20225;-71
2023/01/09 07:15:28;;;;;;;1.27;1.20;;;2.90;99.90;;;;;;5098388;28;20661;-70
2023/01/09 07:17:54;;;;;;;0.57;0.57;;;2.90;99.90;;;;;;5116906;28;20199;-72
2023/01/09 07:20:20;;;;;;;0.65;0.65;;;2.90;99.90;;;;;;5116131;28;20198;-72
2023/01/09 07:22:46;;;;;;;0.60;0.60;;;2.80;99.90;;;;;;5116824;28;20203;-70
2023/01/09 07:25:11;;;;;;;0.60;0.60;;;2.90;99.90;;;;;;5116795;28;20196;-70
2023/01/09 07:27:37;;;;;;;0.45;0.45;;;2.90;99.90;;;;;;5097937;28;20599;-70
2023/01/09 07:30:04;;;;;;;0.60;0.60;;;2.90;99.90;;;;;;5116719;28;20198;-70
2023/01/09 07:32:30;;;;;;;0.68;0.68;;;2.80;99.90;;;;;;5098046;28;20192;-70
2023/01/09 07:34:56;;;;;;;0.60;0.60;;;2.80;99.90;;;;;;5115905;28;20632;-71
2023/01/09 07:37:22;;;;;;;0.60;0.60;;;2.80;99.90;;;;;;5114758;28;20271;-70
2023/01/09 07:39:48;;;;;;;0.60;0.60;;;2.80;99.90;;;;;;5077952;28;20211;-70
2023/01/09 07:42:14;;;;;;;0.60;0.60;;;2.80;99.90;;;;;;5094650;28;20242;-71
2023/01/09 07:44:39;;;;;;;0.60;0.60;;;2.80;99.90;;;;;;5095857;28;20219;-70
2023/01/09 07:47:05;;;;;;;0.60;0.60;;;2.80;99.90;;;;;;5095828;28;20247;-70
2023/01/09 07:49:31;;;;;;;0.47;0.47;;;2.90;99.90;;;;;;5091295;28;20192;-70
2023/01/09 07:51:57;;;;;;;0.50;0.50;;;2.90;99.90;;;;;;5116178;28;20202;-70
2023/01/09 07:54:23;;;;;;;0.52;0.52;;;2.90;99.90;;;;;;5097491;28;20204;-69
2023/01/09 07:56:49;;;;;;;0.63;0.63;;;2.80;99.90;;;;;;5097284;28;20202;-69
2023/01/09 07:59:14;;;;;;;0.57;0.57;;;2.80;99.90;;;;;;5115661;28;20223;-70
2023/01/09 08:01:40;;;;;;;0.60;0.60;;;2.90;99.90;;;;;;5097249;28;20198;-70
2023/01/09 08:04:06;;;;;;;0.70;0.70;;;2.90;99.90;;;;;;5115659;28;20324;-70
2023/01/09 08:06:31;;;;;;;0.60;0.60;;;2.80;99.90;;;;;;5115773;28;20199;-70
2023/01/09 08:08:58;;;;;;;1.20;1.10;;;2.90;99.90;;;;;;5115875;28;20213;-70
2023/01/09 08:11:24;;;;;;;0.50;0.50;;;2.90;99.90;;;;;;5115709;28;20192;-70
2023/01/09 08:13:50;;;;;;;0.60;0.60;;;2.90;99.90;;;;;;5116044;28;20235;-70
2023/01/09 08:16:16;;;;;;;0.60;0.60;;;2.90;99.90;;;;;;5097551;28;20202;-70
2023/01/09 08:18:41;;;;;;;0.50;0.50;;;2.80;99.90;;;;;;5097161;28;20192;-70
2023/01/09 08:21:07;;;;;;;0.60;0.60;;;2.90;99.90;;;;;;5115786;28;20187;-70
2023/01/09 08:23:33;;;;;;;0.50;0.50;;;2.90;99.90;;;;;;5115197;28;20219;-71
2023/01/09 08:25:59;;;;;;;0.50;0.50;;;2.90;99.90;;;;;;5097244;28;20198;-71
2023/01/09 08:28:24;;;;;;;0.60;0.60;;;2.90;99.90;;;;;;5096667;28;20227;-69
2023/01/09 08:30:50;;;;;;;0.60;0.60;;;2.90;99.90;;;;;;5097270;28;20206;-69
2023/01/09 08:33:16;;;;;;;0.50;0.50;;;2.90;99.90;;;;;;5115188;28;20270;-72
2023/01/09 08:35:43;;;;;;;0.57;0.57;;;2.90;99.90;;;;;;5114753;28;20701;-69
2023/01/09 08:38:09;;;;;;;0.60;0.60;;;2.90;99.90;;;;;;5107515;28;20227;-74
2023/01/09 08:40:35;;;;;;;0.70;0.70;;;2.90;99.90;;;;;;5094903;28;20583;-70
2023/01/09 08:48:29;;;;;;;0.60;0.60;;;2.90;99.90;;;;;;5115001;28;20214;-71
2023/01/09 08:50:55;;;;;;;1.10;1.02;;;2.90;99.90;;;;;;5114815;28;20199;-70
2023/01/09 08:53:21;;;;;;;0.50;0.50;;;2.90;99.90;;;;;;5096365;28;20191;-70
2023/01/09 08:55:47;;;;;;;0.52;0.52;;;2.90;99.90;;;;;;5114678;28;20192;-70
2023/01/09 08:58:12;;;;;;;0.60;0.60;;;2.90;99.90;;;;;;5096543;28;20192;-70
2023/01/09 09:00:38;;;;;;;0.50;0.50;;;2.90;99.90;;;;;;5096436;28;20340;-70
2023/01/09 09:03:04;;;;;;;0.50;0.50;;;2.90;99.90;;;;;;5114169;28;20701;-71
2023/01/09 09:05:30;;;;;;;0.60;0.60;;;2.90;99.90;;;;;;5096282;28;20669;-70
2023/01/09 09:07:57;;;;;;;0.65;0.65;;;2.90;99.90;;;;;;5114766;28;20214;-69
2023/01/09 09:10:28;;;;;;;0.55;0.55;;;2.90;99.90;;;;;;5114744;28;20321;-69
2023/01/09 09:12:55;;;;;;;0.50;0.50;;;2.80;99.90;;;;;;5114534;28;20713;-70
2023/01/09 09:15:22;;;;;;;0.60;0.60;;;2.90;99.90;;;;;;5114766;28;20226;-70
2023/01/09 09:17:54;;;;;;;0.65;0.65;;;2.80;99.90;;;;;;5096381;28;20673;-69
2023/01/09 09:20:21;;;;;;;0.50;0.50;;;2.80;99.90;;;;;;5114074;28;20213;-71
2023/01/09 09:22:47;;;;;;;0.50;0.50;;;2.80;99.90;;;;;;5114387;28;20646;-70
2023/01/09 09:25:14;;;;;;;0.77;0.77;;;2.80;99.90;;;;;;5114420;28;20201;-70
2023/01/09 09:27:40;;;;;;;0.50;0.50;;;2.90;99.90;;;;;;5095290;28;20241;-70
2023/01/09 09:30:08;;;;;;;0.60;0.60;;;2.80;99.90;;;;;;5114346;28;20222;-70
2023/01/09 09:32:33;;;;;;;0.55;0.55;;;2.80;99.90;;;;;;5095792;28;20195;-71
2023/01/09 09:34:59;;;;;;;0.60;0.60;;;2.80;99.90;;;;;;5114151;28;20187;-70
2023/01/09 09:37:25;;;;;;;0.50;0.50;;;2.80;99.90;;;;;;5111973;28;20540;-70
2023/01/09 09:39:51;;;;;;;0.60;0.60;;;2.90;99.90;;;;;;5093647;28;20560;-72
2023/01/09 09:45:32;;;;;;;0.60;0.60;;;2.90;99.90;;;;;;5113905;28;20251;-70
2023/01/09 09:48:30;;;;;;;0.77;0.77;;;2.90;99.90;;;;;;5114003;28;20207;-70
2023/01/09 09:51:18;;;;;;;0.60;0.60;;;2.90;99.90;;;;;;5068742;28;20225;-70
2023/01/09 09:53:58;;;;;;;0.52;0.52;;;2.90;99.90;;;;;;5095031;28;20192;-70
2023/01/09 09:56:25;;;;;;;0.52;0.52;;;2.90;99.90;;;;;;5113630;28;20187;-71
2023/01/09 09:59:03;;;;;;;0.70;0.70;;;2.90;99.90;;;;;;5113169;28;20600;-70
2023/01/09 10:01:50;;;;;;;0.80;0.80;;;2.90;99.90;;;;;;5112740;28;20199;-71
2023/01/09 10:04:19;;;;;;;0.60;0.60;;;2.90;99.90;;;;;;5095236;28;20238;-71
2023/01/09 10:06:56;;;;;;;1.10;1.00;;;2.90;99.90;;;;;;5113286;28;20286;-70
2023/01/09 10:09:35;;;;;;;0.60;0.60;;;2.90;99.90;;;;;;5113371;28;20264;-72
2023/01/09 10:12:16;;;;;;;0.73;0.73;;;2.90;99.90;;;;;;5113722;28;20183;-70
2023/01/09 10:14:41;;;;;;;0.70;0.70;;;2.90;99.90;;;;;;5095066;28;20198;-70
2023/01/09 10:17:25;;;;;;;0.50;0.50;;;2.90;99.90;;;;;;5112844;28;20196;-70
2023/01/09 10:20:28;;;;;;;0.50;0.50;;;2.80;99.90;;;;;;5095207;28;20191;-70
2023/01/09 10:23:03;;;;;;;0.50;0.50;;;2.80;99.90;;;;;;5113650;28;20190;-70
2023/01/09 10:26:13;;;;;;;0.50;0.50;;;2.80;99.90;;;;;;5113210;28;20182;-69
2023/01/09 10:29:05;;;;;;;0.68;0.68;;;2.80;99.90;;;;;;5109125;28;20223;-70
2023/01/09 10:32:08;;;;;;;0.68;0.68;;;2.80;99.90;;;;;;5113356;28;20180;-70
2023/01/09 10:35:18;;;;;;;0.80;0.80;;;2.80;99.90;;;;;;5068019;28;20211;-70
2023/01/09 10:37:47;;;;;;;0.60;0.60;;;2.80;99.90;;;;;;5092208;28;20207;-70
2023/01/09 10:40:27;;;;;;;0.60;0.60;;;2.90;99.90;;;;;;5113578;28;20191;-70
2023/01/09 10:43:04;;;;;;;0.55;0.55;;;2.90;99.90;;;;;;5113267;28;20195;-70
2023/01/09 10:45:35;;;;;;;0.60;0.60;;;2.80;99.90;;;;;;5113207;28;20240;-70
2023/01/09 10:48:16;;;;;;;0.75;0.75;;;2.70;99.90;;;;;;5113718;28;20204;-70
2023/01/09 10:50:44;;;;;;;0.50;0.50;;;2.80;99.90;;;;;;5094876;28;20705;-71
2023/01/09 10:53:22;;;;;;;0.50;0.50;;;2.90;99.90;;;;;;5094989;28;20246;-70
2023/01/09 10:55:53;;;;;;;0.60;0.60;;;2.80;99.90;;;;;;5113118;28;20274;-72
2023/01/09 10:58:21;;;;;;;0.55;0.55;;;2.80;99.90;;;;;;5113320;28;20203;-70
2023/01/09 11:00:49;;;;;;;0.60;0.60;;;2.80;99.90;;;;;;5095046;28;20268;-71
2023/01/09 11:03:18;;;;;;;0.50;0.50;;;2.80;99.90;;;;;;5102037;28;20303;-71
2023/01/09 11:05:51;;;;;;;0.50;0.50;;;2.80;99.90;;;;;;5092591;28;20192;-70
2023/01/09 11:08:27;;;;;;;0.70;0.70;;;2.80;99.90;;;;;;5074703;28;20295;-70
2023/01/09 11:10:55;;;;;;;0.50;0.50;;;2.80;99.90;;;;;;5096468;28;20702;-71
2023/01/09 11:13:32;;;;;;;0.60;0.60;;;2.80;99.90;;;;;;5096175;28;20203;-70
2023/01/09 11:16:16;;;;;;;0.50;0.50;;;2.80;99.90;;;;;;5096501;28;20195;-70
2023/01/09 11:18:57;;;;;;;0.60;0.60;;;2.70;99.90;;;;;;5096339;28;20196;-70
2023/01/09 11:21:40;;;;;;;0.50;0.50;;;2.70;99.90;;;;;;5096324;28;20210;-71
2023/01/09 11:24:19;;;;;;;0.68;0.65;;;2.70;99.90;;;;;;5078351;28;20299;-70
2023/01/09 11:26:47;;;;;;;0.60;0.60;;;2.70;99.90;;;;;;5096285;28;20265;-70
2023/01/09 11:29:16;;;;;;;0.60;0.60;;;2.80;99.90;;;;;;5078243;28;20192;-70
2023/01/09 11:31:53;;;;;;;0.60;0.60;;;2.80;99.90;;;;;;5096002;28;20188;-71
2023/01/09 11:34:22;;;;;;;0.82;0.82;;;2.70;99.90;;;;;;5077863;28;20549;-71
2023/01/09 11:36:50;;;;;;;0.60;0.60;;;2.70;99.90;;;;;;5077873;28;20291;-70
2023/01/09 11:39:28;;;;;;;0.60;0.60;;;2.70;99.90;;;;;;5095852;28;20200;-69
2023/01/09 11:42:01;;;;;;;0.60;0.60;;;2.70;99.90;;;;;;5077827;28;20188;-70
2023/01/09 11:44:29;;;;;;;0.40;0.40;;;2.70;99.90;;;;;;5077636;28;20203;-70
2023/01/09 11:46:55;;;;;;;0.65;0.65;;;2.80;99.90;;;;;;5095948;28;20253;-70
2023/01/09 11:49:23;;;;;;;0.47;0.47;;;2.80;99.90;;;;;;5077528;28;20188;-70
2023/01/09 11:52:18;;;;;;;1.20;1.02;;;2.70;99.90;;;;;;5095766;28;20189;-70
2023/01/09 11:55:07;;;;;;;0.60;0.60;;;2.70;99.90;;;;;;5077787;28;20234;-70
2023/01/09 11:57:33;;;;;;;0.60;0.60;;;2.70;99.90;;;;;;5095338;28;20274;-70
2023/01/09 12:00:03;;;;;;;0.50;0.50;;;2.70;99.90;;;;;;5095724;28;20275;-70
2023/01/09 12:03:15;;;;;;;0.57;0.57;;;2.70;99.90;;;;;;5077583;28;20255;-70
2023/01/09 12:06:08;;;;;;;0.57;0.57;;;2.70;99.90;;;;;;5093708;28;20208;-70
2023/01/09 12:08:36;;;;;;;0.52;0.52;;;2.70;99.90;;;;;;5093792;28;20697;-71
2023/01/09 12:11:17;;;;;;;0.60;0.60;;;2.60;99.90;;;;;;5095419;28;20228;-70
2023/01/09 12:13:55;;;;;;;0.50;0.50;;;2.60;99.90;;;;;;5095260;28;20195;-70
2023/01/09 12:16:53;;;;;;;0.60;0.60;;;2.60;99.90;;;;;;5095177;28;20192;-70
2023/01/09 12:19:19;;;;;;;0.60;0.60;;;2.60;99.90;;;;;;5080928;28;20350;-71
2023/01/09 12:22:01;;;;;;;0.60;0.60;;;2.60;99.90;;;;;;5094599;28;20228;-70
2023/01/09 12:24:47;;;;;;;0.60;0.60;;;2.60;99.90;;;;;;5094461;28;20207;-70
2023/01/09 12:27:42;;;;;;;0.63;0.63;;;2.60;99.90;;;;;;5094607;28;20281;-70
2023/01/09 12:30:25;;;;;;;0.50;0.50;;;2.60;99.90;;;;;;5094927;28;20196;-70
2023/01/09 12:33:09;;;;;;;0.50;0.50;;;2.60;99.90;;;;;;5093685;28;20275;-71
2023/01/09 12:35:37;;;;;;;0.70;0.70;;;2.60;99.90;;;;;;5094628;28;20207;-70
2023/01/09 12:38:25;;;;;;;0.50;0.50;;;2.60;99.90;;;;;;5094731;28;20238;-70
2023/01/09 12:41:35;;;;;;;0.60;0.60;;;2.60;99.90;;;;;;5094707;28;20218;-70
2023/01/09 12:44:13;;;;;;;0.80;0.80;;;2.60;99.90;;;;;;5071651;28;20208;-70
2023/01/09 12:46:52;;;;;;;0.75;0.75;;;2.60;99.90;;;;;;5093268;28;20200;-70
2023/01/09 12:49:33;;;;;;;0.50;0.50;;;2.60;99.90;;;;;;5093321;28;20200;-71
2023/01/09 12:52:11;;;;;;;0.60;0.60;;;2.60;99.90;;;;;;5094772;28;20188;-70
2023/01/09 12:54:53;;;;;;;0.50;0.50;;;2.60;99.90;;;;;;5094371;28;20653;-70
2023/01/09 12:57:29;;;;;;;0.40;0.40;;;2.50;99.90;;;;;;5094451;28;20192;-71
2023/01/09 13:00:14;;;;;;;0.73;0.73;;;2.50;99.90;;;;;;5094083;28;20196;-70
2023/01/09 13:03:00;;;;;;;0.50;0.50;;;2.50;99.90;;;;;;5092363;28;20243;-70
2023/01/09 13:06:00;;;;;;;0.70;0.70;;;2.60;99.90;;;;;;5092739;28;20303;-70
2023/01/09 13:08:38;;;;;;;0.70;0.70;;;2.60;99.90;;;;;;5094009;28;20204;-70
2023/01/09 13:11:09;;;;;;;0.63;0.63;;;2.60;99.90;;;;;;5092953;28;20192;-70
2023/01/09 13:13:51;;;;;;;0.57;0.57;;;2.60;99.90;;;;;;5094098;28;20665;-70
2023/01/09 13:16:29;;;;;;;0.40;0.40;;;2.60;99.90;;;;;;5092730;28;20192;-70
2023/01/09 13:19:12;;;;;;;0.70;0.70;;;2.60;99.90;;;;;;5093646;28;20192;-70
2023/01/09 13:21:39;;;;;;;0.55;0.55;;;2.70;99.90;;;;;;5093302;28;20218;-70
2023/01/09 13:24:15;;;;;;;0.60;0.60;;;2.70;99.90;;;;;;5092543;28;20295;-69
2023/01/09 13:26:46;;;;;;;0.60;0.60;;;2.70;99.90;;;;;;5091891;28;20200;-70
2023/01/09 13:29:20;;;;;;;0.60;0.60;;;2.70;99.90;;;;;;5094107;28;20191;-70
2023/01/09 13:31:57;;;;;;;0.55;0.55;;;2.60;99.90;;;;;;5091970;28;20214;-70